createdAt,value
2023-02-28T00:00:30.638Z,103063.16
2023-02-28T00:02:59.980Z,103059.66
2023-02-28T00:05:36.574Z,103066.63
2023-02-28T00:08:09.949Z,103064.00
2023-02-28T00:10:44.112Z,103064.88
2023-02-28T00:13:17.631Z,103063.09
2023-02-28T00:15:45.280Z,103055.22
2023-02-28T00:18:19.586Z,103063.97
2023-02-28T00:20:46.838Z,103063.06
2023-02-28T00:23:24.310Z,103066.56
2023-02-28T00:25:51.604Z,103066.59
2023-02-28T00:28:25.716Z,103059.59
2023-02-28T00:30:52.416Z,103066.56
2023-02-28T00:33:25.696Z,103061.31
2023-02-28T00:35:58.660Z,103063.03
2023-02-28T00:38:39.493Z,103042.94
2023-02-28T00:41:06.733Z,103068.25
2023-02-28T00:43:43.777Z,103058.63
2023-02-28T00:46:10.423Z,103068.25
2023-02-28T00:48:43.682Z,103068.22
2023-02-28T00:51:10.431Z,103068.22
2023-02-28T00:53:37.051Z,103064.75
2023-02-28T00:56:12.039Z,103053.38
2023-02-28T00:58:38.796Z,103062.97
2023-02-28T01:01:11.649Z,103067.34
2023-02-28T01:03:39.330Z,103060.34
2023-02-28T01:06:13.129Z,103057.72
2023-02-28T01:08:39.702Z,103060.31
2023-02-28T01:11:18.636Z,103052.47
2023-02-28T01:13:46.585Z,103036.75
2023-02-28T01:16:20.686Z,103042.00
2023-02-28T01:18:47.596Z,103062.06
2023-02-28T01:21:23.670Z,103055.09
2023-02-28T01:23:51.274Z,103049.84
2023-02-28T01:26:27.654Z,103052.47
2023-02-28T01:28:54.718Z,103059.44
2023-02-28T01:31:30.064Z,103033.25
2023-02-28T01:34:03.715Z,103059.44
2023-02-28T01:36:44.803Z,103047.19
2023-02-28T01:39:17.728Z,103048.09
2023-02-28T01:41:51.683Z,103061.22
2023-02-28T01:44:57.941Z,103052.44
2023-02-28T01:47:37.713Z,103050.69
2023-02-28T01:50:18.142Z,103052.44
2023-02-28T01:52:46.941Z,103037.56
2023-02-28T01:55:23.455Z,103048.97
2023-02-28T01:57:56.226Z,103044.59
2023-02-28T02:00:34.615Z,103057.69
2023-02-28T02:03:10.418Z,103052.44
2023-02-28T02:05:46.901Z,103049.81
2023-02-28T02:08:16.654Z,103046.31
2023-02-28T02:11:02.918Z,103040.22
2023-02-28T02:13:49.726Z,103050.69
2023-02-28T02:16:24.182Z,103041.97
2023-02-28T02:19:05.709Z,103045.47
2023-02-28T02:21:57.345Z,103055.94
2023-02-28T02:25:06.773Z,103059.44
2023-02-28T02:27:53.483Z,103050.72
2023-02-28T02:30:45.404Z,103041.09
2023-02-28T02:33:56.698Z,103057.66
2023-02-28T02:37:19.043Z,103062.06
2023-02-28T02:40:02.879Z,103062.91
2023-02-28T02:42:44.705Z,103055.06
2023-02-28T02:45:26.977Z,103044.59
2023-02-28T02:48:03.777Z,103041.97
2023-02-28T02:50:44.817Z,103050.72
2023-02-28T02:53:21.026Z,103060.34
2023-02-28T02:55:55.730Z,103050.72
2023-02-28T02:58:42.803Z,103045.47
2023-02-28T03:01:18.102Z,103048.97
2023-02-28T03:03:53.832Z,103047.22
2023-02-28T03:06:29.748Z,103037.59
2023-02-28T03:08:56.505Z,103043.69
2023-02-28T03:11:31.044Z,103043.72
2023-02-28T03:14:11.087Z,103044.59
2023-02-28T03:17:26.700Z,103051.59
2023-02-28T03:20:25.779Z,103043.72
2023-02-28T03:22:59.649Z,103038.50
2023-02-28T03:25:43.295Z,103030.59
2023-02-28T03:28:34.731Z,103034.13
2023-02-28T03:31:22.268Z,103036.75
2023-02-28T03:34:03.758Z,103025.41
2023-02-28T03:36:45.105Z,103035.91
2023-02-28T03:39:43.700Z,103030.66
2023-02-28T03:42:30.088Z,103021.06
2023-02-28T03:45:12.645Z,103028.06
2023-02-28T03:48:02.849Z,103031.56
2023-02-28T03:50:39.685Z,103036.81
2023-02-28T03:53:12.764Z,103045.53
2023-02-28T03:56:07.757Z,103030.72
2023-02-28T03:59:20.450Z,103038.53
2023-02-28T04:01:55.817Z,103037.66
2023-02-28T04:04:23.648Z,103034.13
2023-02-28T04:07:07.746Z,103021.94
2023-02-28T04:09:40.760Z,103035.06
2023-02-28T04:12:14.724Z,103036.81
2023-02-28T04:14:41.305Z,103028.94
2023-02-28T04:17:14.744Z,103027.19
2023-02-28T04:19:41.353Z,103020.19
2023-02-28T04:22:15.698Z,103026.31
2023-02-28T04:24:42.909Z,103032.44
2023-02-28T04:27:16.711Z,103031.56
2023-02-28T04:29:45.652Z,103017.56
2023-02-28T04:32:18.874Z,103030.69
2023-02-28T04:34:51.838Z,103029.81
2023-02-28T04:37:36.756Z,103028.94
2023-02-28T04:40:04.994Z,103028.94
2023-02-28T04:42:43.727Z,103028.94
2023-02-28T04:45:11.426Z,103042.09
2023-02-28T04:47:44.706Z,103040.34
2023-02-28T04:50:17.876Z,103035.09
2023-02-28T04:52:44.668Z,103030.72
2023-02-28T04:55:17.790Z,103036.84
2023-02-28T04:57:44.411Z,103036.84
2023-02-28T05:00:18.823Z,103031.59
2023-02-28T05:02:45.499Z,103036.00
2023-02-28T05:05:19.788Z,103037.75
2023-02-28T05:07:52.766Z,103029.88
2023-02-28T05:10:25.832Z,103039.47
2023-02-28T05:12:52.466Z,103045.59
2023-02-28T05:15:19.200Z,103035.13
2023-02-28T05:17:52.752Z,103040.38
2023-02-28T05:20:19.580Z,103049.09
2023-02-28T05:22:52.769Z,103043.84
2023-02-28T05:25:23.176Z,103046.50
2023-02-28T05:27:56.771Z,103049.97
2023-02-28T05:30:23.486Z,103048.25
2023-02-28T05:32:58.765Z,103051.72
2023-02-28T05:35:32.939Z,103049.97
2023-02-28T05:38:12.740Z,103042.97
2023-02-28T05:40:41.518Z,103049.13
2023-02-28T05:43:17.806Z,103052.59
2023-02-28T05:45:54.891Z,103050.00
2023-02-28T05:48:27.702Z,103063.09
2023-02-28T05:51:00.786Z,103057.88
2023-02-28T05:53:27.683Z,103055.22
2023-02-28T05:56:00.799Z,103059.59
2023-02-28T05:58:31.703Z,103065.72
2023-02-28T06:01:06.784Z,103057.84
2023-02-28T06:03:33.479Z,103064.88
2023-02-28T06:06:09.754Z,103062.25
2023-02-28T06:08:36.457Z,103069.28
2023-02-28T06:11:12.734Z,103069.25
2023-02-28T06:13:39.663Z,103070.13
2023-02-28T06:16:12.800Z,103082.34
2023-02-28T06:18:46.772Z,103078.00
2023-02-28T06:21:20.782Z,103085.88
2023-02-28T06:23:47.570Z,103086.75
2023-02-28T06:26:20.735Z,103094.63
2023-02-28T06:28:54.748Z,103088.47
2023-02-28T06:31:22.213Z,103082.38
2023-02-28T06:33:55.844Z,103088.47
2023-02-28T06:36:42.795Z,103091.09
2023-02-28T06:39:16.862Z,103097.22
2023-02-28T06:41:54.816Z,103095.47
2023-02-28T06:44:28.801Z,103091.97
2023-02-28T06:46:55.464Z,103103.31
2023-02-28T06:49:28.806Z,103099.81
2023-02-28T06:51:55.337Z,103108.53
2023-02-28T06:54:28.820Z,103090.19
2023-02-28T06:57:01.761Z,103106.75
2023-02-28T06:59:34.855Z,103111.97
2023-02-28T07:02:03.342Z,103114.59
2023-02-28T07:04:37.061Z,103102.34
2023-02-28T07:07:03.748Z,103115.41
2023-02-28T07:09:37.841Z,103121.53
2023-02-28T07:12:10.822Z,103115.38
2023-02-28T07:14:38.490Z,103125.81
2023-02-28T07:17:11.889Z,103113.56
2023-02-28T07:19:41.519Z,103116.13
2023-02-28T07:22:15.962Z,103119.63
2023-02-28T07:24:42.792Z,103115.19
2023-02-28T07:27:15.868Z,103120.47
2023-02-28T07:29:42.552Z,103116.06
2023-02-28T07:32:15.820Z,103116.09
2023-02-28T07:34:42.615Z,103129.19
2023-02-28T07:37:22.750Z,103120.47
2023-02-28T07:39:49.445Z,103136.19
2023-02-28T07:42:22.825Z,103130.06
2023-02-28T07:44:49.598Z,103131.84
2023-02-28T07:47:25.138Z,103134.47
2023-02-28T07:49:58.851Z,103124.00
2023-02-28T07:52:25.509Z,103137.09
2023-02-28T07:54:58.856Z,103118.72
2023-02-28T07:57:25.614Z,103125.69
2023-02-28T07:59:58.790Z,103123.03
2023-02-28T08:02:29.166Z,103130.88
2023-02-28T08:05:02.867Z,103123.81
2023-02-28T08:07:29.742Z,103133.41
2023-02-28T08:10:02.876Z,103137.75
2023-02-28T08:12:29.599Z,103140.34
2023-02-28T08:15:02.878Z,103141.16
2023-02-28T08:17:29.634Z,103149.00
2023-02-28T08:20:09.891Z,103147.19
2023-02-28T08:22:45.739Z,103146.28
2023-02-28T08:25:14.028Z,103148.88
2023-02-28T08:27:47.910Z,103140.91
2023-02-28T08:30:15.569Z,103131.22
2023-02-28T08:32:48.832Z,103140.78
2023-02-28T08:35:21.950Z,103146.00
2023-02-28T08:38:01.914Z,103130.19
2023-02-28T08:40:28.549Z,103134.50
2023-02-28T08:43:01.943Z,103144.84
2023-02-28T08:45:28.651Z,103137.78
2023-02-28T08:48:02.847Z,103135.03
2023-02-28T08:50:29.648Z,103133.34
2023-02-28T08:53:02.941Z,103122.84
2023-02-28T08:55:29.568Z,103137.75
2023-02-28T08:58:02.897Z,103136.84
2023-02-28T09:00:36.018Z,103148.19
2023-02-28T09:03:02.909Z,103141.16
2023-02-28T09:05:37.870Z,103142.88
2023-02-28T09:08:04.716Z,103145.44
2023-02-28T09:10:37.895Z,103146.19
2023-02-28T09:13:04.525Z,103143.41
2023-02-28T09:15:37.902Z,103146.81
2023-02-28T09:18:04.614Z,103141.50
2023-02-28T09:20:37.872Z,103146.63
2023-02-28T09:23:04.524Z,103142.13
2023-02-28T09:25:37.902Z,103141.91
2023-02-28T09:28:05.269Z,103147.41
2023-02-28T09:30:38.959Z,103136.06
2023-02-28T09:33:05.604Z,103129.69
2023-02-28T09:35:38.904Z,103138.59
2023-02-28T09:38:12.971Z,103131.88
2023-02-28T09:41:07.858Z,103131.66
2023-02-28T09:43:46.082Z,103127.63
2023-02-28T09:46:28.307Z,103127.94
2023-02-28T09:49:03.824Z,103132.41
2023-02-28T09:51:47.573Z,103139.75
2023-02-28T09:54:27.232Z,103131.22
2023-02-28T09:57:09.913Z,103129.41
2023-02-28T09:59:51.917Z,103141.84
2023-02-28T10:02:46.886Z,103134.13
2023-02-28T10:05:16.775Z,103130.16
2023-02-28T10:08:15.892Z,103123.63
2023-02-28T10:10:44.069Z,103113.56
2023-02-28T10:13:29.898Z,103119.91
2023-02-28T10:16:08.033Z,103117.66
2023-02-28T10:19:09.907Z,103121.63
2023-02-28T10:21:42.123Z,103119.53
2023-02-28T10:24:51.872Z,103111.38
2023-02-28T10:27:28.373Z,103116.34
2023-02-28T10:30:04.094Z,103126.53
2023-02-28T10:32:34.132Z,103113.88
2023-02-28T10:35:30.910Z,103114.56
2023-02-28T10:38:16.588Z,103111.22
2023-02-28T10:40:49.896Z,103116.13
2023-02-28T10:43:16.672Z,103091.31
2023-02-28T10:46:17.073Z,103118.38
2023-02-28T10:48:58.309Z,103119.28
2023-02-28T10:51:32.271Z,103111.03
2023-02-28T10:54:02.077Z,103117.75
2023-02-28T10:56:36.898Z,103120.59
2023-02-28T10:59:09.680Z,103112.75
2023-02-28T11:02:01.041Z,103108.75
2023-02-28T11:04:31.055Z,103089.44
2023-02-28T11:07:10.880Z,103096.09
2023-02-28T11:09:41.247Z,103094.06
2023-02-28T11:12:26.872Z,103086.88
2023-02-28T11:14:58.301Z,103104.44
2023-02-28T11:17:34.908Z,103102.81
2023-02-28T11:20:24.506Z,103079.44
2023-02-28T11:22:58.886Z,103091.66
2023-02-28T11:25:34.942Z,103098.31
2023-02-28T11:28:42.005Z,103091.78
2023-02-28T11:31:17.622Z,103076.59
2023-02-28T11:33:57.963Z,103081.31
2023-02-28T11:36:45.953Z,103078.16
2023-02-28T11:39:26.888Z,103078.66
2023-02-28T11:41:56.947Z,103079.16
2023-02-28T11:45:02.941Z,103084.31
2023-02-28T11:47:32.755Z,103086.91
2023-02-28T11:50:27.963Z,103077.94
2023-02-28T11:53:03.963Z,103071.81
2023-02-28T11:55:47.084Z,103065.13
2023-02-28T11:58:34.739Z,103069.63
2023-02-28T12:01:16.999Z,103069.09
2023-02-28T12:03:55.752Z,103062.84
2023-02-28T12:06:52.908Z,103068.19
2023-02-28T12:09:45.776Z,103066.75
2023-02-28T12:12:37.920Z,103060.09
2023-02-28T12:15:45.233Z,103057.34
2023-02-28T12:18:30.945Z,103063.25
2023-02-28T12:21:23.340Z,103057.78
2023-02-28T12:24:17.028Z,103049.72
2023-02-28T12:26:51.931Z,103042.28
2023-02-28T12:29:25.257Z,103044.84
2023-02-28T12:32:08.184Z,103040.34
2023-02-28T12:34:47.493Z,103036.56
2023-02-28T12:37:28.561Z,103026.59
2023-02-28T12:40:20.118Z,103033.50
2023-02-28T12:42:58.940Z,103015.81
2023-02-28T12:45:43.151Z,103011.94
2023-02-28T12:48:15.790Z,103018.91
2023-02-28T12:50:50.022Z,103018.34
2023-02-28T12:53:34.003Z,103013.94
2023-02-28T12:56:17.925Z,103002.63
2023-02-28T12:58:52.961Z,103009.56
2023-02-28T13:01:35.036Z,102989.16
2023-02-28T13:04:39.927Z,102991.78
2023-02-28T13:07:37.021Z,102993.41
2023-02-28T13:10:14.933Z,102991.50
2023-02-28T13:12:56.031Z,102979.13
2023-02-28T13:15:35.964Z,102984.69
2023-02-28T13:19:08.952Z,102982.00
2023-02-28T13:21:44.523Z,102992.69
2023-02-28T13:24:18.956Z,102984.72
2023-02-28T13:26:51.520Z,102985.91
2023-02-28T13:29:24.954Z,102984.44
2023-02-28T13:32:07.049Z,102983.97
2023-02-28T13:34:45.090Z,102975.31
2023-02-28T13:37:27.118Z,102970.91
2023-02-28T13:40:05.057Z,102983.03
2023-02-28T13:42:31.664Z,102981.06
2023-02-28T13:45:10.954Z,102984.09
2023-02-28T13:47:48.977Z,102981.91
2023-02-28T13:50:43.985Z,102974.16
2023-02-28T13:53:16.350Z,102973.13
2023-02-28T13:56:25.969Z,102976.34
2023-02-28T13:59:07.574Z,102956.16
2023-02-28T14:01:54.428Z,102981.09
2023-02-28T14:04:46.031Z,102972.09
2023-02-28T14:07:28.074Z,102979.44
2023-02-28T14:10:16.991Z,102980.41
2023-02-28T14:12:52.418Z,102980.81
2023-02-28T14:15:40.979Z,102980.81
2023-02-28T14:18:27.043Z,102982.66
2023-02-28T14:21:17.870Z,102977.06
2023-02-28T14:24:15.941Z,102965.81
2023-02-28T14:27:04.901Z,102975.47
2023-02-28T14:30:00.002Z,102953.16
2023-02-28T14:32:38.706Z,102966.13
2023-02-28T14:35:27.139Z,102969.19
2023-02-28T14:38:00.458Z,102962.41
2023-02-28T14:40:38.051Z,102961.63
2023-02-28T14:43:07.168Z,102966.47
2023-02-28T14:45:45.277Z,102965.22
2023-02-28T14:48:11.848Z,102960.25
2023-02-28T14:50:44.981Z,102953.53
2023-02-28T14:53:26.044Z,102963.94
2023-02-28T14:56:00.026Z,102951.16
2023-02-28T14:58:32.648Z,102951.22
2023-02-28T15:01:08.014Z,102945.75
2023-02-28T15:03:47.140Z,102938.59
2023-02-28T15:06:24.174Z,102946.72
2023-02-28T15:09:24.015Z,102945.84
2023-02-28T15:11:51.460Z,102945.44
2023-02-28T15:14:27.982Z,102950.22
2023-02-28T15:17:08.068Z,102946.19
2023-02-28T15:19:41.324Z,102946.09
2023-02-28T15:22:24.040Z,102951.31
2023-02-28T15:24:56.012Z,102936.66
2023-02-28T15:27:41.003Z,102947.38
2023-02-28T15:30:23.015Z,102956.31
2023-02-28T15:33:19.142Z,102947.19
2023-02-28T15:35:53.065Z,102945.16
2023-02-28T15:38:26.066Z,102952.38
2023-02-28T15:41:05.055Z,102954.78
2023-02-28T15:43:34.559Z,102950.47
2023-02-28T15:46:13.117Z,102950.25
2023-02-28T15:49:02.087Z,102953.28
2023-02-28T15:51:45.193Z,102947.19
2023-02-28T15:54:19.999Z,102944.19
2023-02-28T15:56:59.007Z,102940.78
2023-02-28T15:59:29.445Z,102952.84
2023-02-28T16:02:18.163Z,102951.72
2023-02-28T16:05:19.566Z,102956.50
2023-02-28T16:07:53.155Z,102959.50
2023-02-28T16:10:26.135Z,102959.47
2023-02-28T16:12:54.954Z,102956.59
2023-02-28T16:15:24.130Z,102963.34
2023-02-28T16:17:58.358Z,102969.09
2023-02-28T16:20:32.092Z,102954.59
2023-02-28T16:23:09.207Z,102957.56
2023-02-28T16:25:45.308Z,102953.50
2023-02-28T16:28:28.083Z,102956.28
2023-02-28T16:30:55.145Z,102948.66
2023-02-28T16:33:28.041Z,102955.94
2023-02-28T16:36:01.076Z,102952.53
2023-02-28T16:38:35.222Z,102955.97
2023-02-28T16:41:09.119Z,102971.00
2023-02-28T16:43:35.725Z,102968.47
2023-02-28T16:46:12.382Z,102965.16
2023-02-28T16:48:40.578Z,102961.84
2023-02-28T16:51:19.118Z,102972.59
2023-02-28T16:53:46.718Z,102973.69
2023-02-28T16:56:31.078Z,102976.56
2023-02-28T16:59:01.800Z,102982.94
2023-02-28T17:01:37.179Z,102982.25
2023-02-28T17:04:04.095Z,102973.75
2023-02-28T17:06:38.088Z,102992.31
2023-02-28T17:09:04.767Z,102992.47
2023-02-28T17:11:31.852Z,102990.03
2023-02-28T17:14:15.127Z,102990.16
2023-02-28T17:16:56.157Z,102984.22
2023-02-28T17:19:29.449Z,102994.03
2023-02-28T17:22:02.071Z,102989.00
2023-02-28T17:24:38.200Z,102997.84
2023-02-28T17:27:05.408Z,102984.03
2023-02-28T17:29:38.041Z,102997.28
2023-02-28T17:32:16.987Z,103010.59
2023-02-28T17:34:51.053Z,103021.31
2023-02-28T17:37:24.192Z,103019.78
2023-02-28T17:39:57.175Z,103017.38
2023-02-28T17:42:23.802Z,103027.09
2023-02-28T17:44:57.132Z,103028.09
2023-02-28T17:47:23.739Z,103035.28
2023-02-28T17:49:57.191Z,103029.22
2023-02-28T17:52:30.133Z,103012.81
2023-02-28T17:55:03.117Z,103032.06
2023-02-28T17:57:36.075Z,103031.28
2023-02-28T18:00:07.566Z,103027.06
2023-02-28T18:02:41.156Z,103014.88
2023-02-28T18:05:08.877Z,103028.94
2023-02-28T18:07:44.083Z,103023.78
2023-02-28T18:10:20.640Z,103034.31
2023-02-28T18:12:56.161Z,103032.63
2023-02-28T18:15:23.438Z,103036.19
2023-02-28T18:17:58.147Z,103040.66
2023-02-28T18:20:24.871Z,103039.81
2023-02-28T18:22:58.076Z,103041.59
2023-02-28T18:25:25.324Z,103024.13
2023-02-28T18:28:05.313Z,103029.41
2023-02-28T18:30:35.869Z,103023.34
2023-02-28T18:33:09.169Z,103026.91
2023-02-28T18:35:42.441Z,103025.16
2023-02-28T18:38:20.025Z,103033.94
2023-02-28T18:41:08.390Z,103031.34
2023-02-28T18:43:38.528Z,103028.78
2023-02-28T18:46:19.205Z,103031.47
2023-02-28T18:48:55.026Z,103035.00
2023-02-28T18:51:32.090Z,103022.78
2023-02-28T18:53:59.791Z,103025.41
2023-02-28T18:56:26.693Z,103027.19
2023-02-28T18:59:00.099Z,103033.34
2023-02-28T19:01:40.148Z,103021.16
2023-02-28T19:04:07.008Z,103033.38
2023-02-28T19:06:41.122Z,103031.66
2023-02-28T19:09:15.233Z,103025.56
2023-02-28T19:11:49.114Z,103022.94
2023-02-28T19:14:15.841Z,103023.84
2023-02-28T19:16:42.592Z,103027.34
2023-02-28T19:19:16.142Z,103017.75
2023-02-28T19:21:42.721Z,103031.75
2023-02-28T19:24:16.091Z,103029.13
2023-02-28T19:26:42.917Z,103029.13
2023-02-28T19:29:16.136Z,103035.25
2023-02-28T19:31:42.811Z,103030.03
2023-02-28T19:34:16.146Z,103036.16
2023-02-28T19:36:49.154Z,103038.78
2023-02-28T19:39:22.762Z,103040.53
2023-02-28T19:41:56.095Z,103043.16
2023-02-28T19:44:29.057Z,103042.28
2023-02-28T19:47:02.150Z,103037.03
2023-02-28T19:49:36.154Z,103041.41
2023-02-28T19:52:13.295Z,103035.25
2023-02-28T19:54:42.349Z,103035.25
2023-02-28T19:57:15.179Z,103057.09
2023-02-28T19:59:42.204Z,103054.44
2023-02-28T20:02:25.289Z,103051.81
2023-02-28T20:04:52.110Z,103052.72
2023-02-28T20:07:29.148Z,103051.81
2023-02-28T20:09:55.842Z,103049.19
2023-02-28T20:12:30.083Z,103054.38
2023-02-28T20:14:56.852Z,103063.13
2023-02-28T20:17:31.374Z,103057.00
2023-02-28T20:19:58.477Z,103030.78
2023-02-28T20:22:32.453Z,103057.84
2023-02-28T20:25:07.271Z,103061.31
2023-02-28T20:28:01.116Z,103056.91
2023-02-28T20:30:34.832Z,103064.75
2023-02-28T20:33:08.201Z,103064.75
2023-02-28T20:35:42.445Z,103069.97
2023-02-28T20:38:24.619Z,103059.47
2023-02-28T20:41:06.572Z,103076.94
2023-02-28T20:43:34.109Z,103078.66
2023-02-28T20:46:10.814Z,103071.59
2023-02-28T20:48:38.450Z,103069.00
2023-02-28T20:51:13.193Z,103066.38
2023-02-28T20:53:39.844Z,103057.59
2023-02-28T20:56:16.144Z,103080.28
2023-02-28T20:58:45.763Z,103061.88
2023-02-28T21:01:23.385Z,103075.81
2023-02-28T21:04:02.177Z,103068.88
2023-02-28T21:06:38.248Z,103069.69
2023-02-28T21:09:10.005Z,103062.75
2023-02-28T21:11:45.106Z,103061.84
2023-02-28T21:14:15.030Z,103039.09
2023-02-28T21:16:48.619Z,103063.56
2023-02-28T21:19:16.403Z,103065.31
2023-02-28T21:21:51.369Z,103056.56
2023-02-28T21:24:20.308Z,103051.34
2023-02-28T21:26:54.191Z,103060.06
2023-02-28T21:29:27.129Z,103057.41
2023-02-28T21:32:00.195Z,103066.09
2023-02-28T21:34:33.201Z,103069.56
2023-02-28T21:37:20.238Z,103069.53
2023-02-28T21:39:53.226Z,103075.59
2023-02-28T21:42:19.850Z,103078.22
2023-02-28T21:44:53.159Z,103074.69
2023-02-28T21:47:19.873Z,103073.78
2023-02-28T21:49:53.238Z,103083.34
2023-02-28T21:52:22.101Z,103079.84
2023-02-28T21:54:55.160Z,103071.94
2023-02-28T21:57:28.451Z,103080.66
2023-02-28T21:59:55.271Z,103085.88
2023-02-28T22:02:35.231Z,103088.44
2023-02-28T22:05:05.062Z,103080.56
2023-02-28T22:07:38.409Z,103066.59
2023-02-28T22:10:06.925Z,103067.44
2023-02-28T22:12:40.290Z,103072.72
2023-02-28T22:15:07.753Z,103062.22
2023-02-28T22:17:41.296Z,103074.44
2023-02-28T22:20:10.192Z,103088.34
2023-02-28T22:22:43.220Z,103081.38
2023-02-28T22:25:10.548Z,103079.59
2023-02-28T22:27:44.526Z,103057.78
2023-02-28T22:30:12.874Z,103065.63
2023-02-28T22:32:46.722Z,103081.31
2023-02-28T22:35:13.492Z,103077.81
2023-02-28T22:37:55.231Z,103077.75
2023-02-28T22:40:28.266Z,103087.31
2023-02-28T22:42:54.926Z,103077.69
2023-02-28T22:45:28.375Z,103090.75
2023-02-28T22:47:55.130Z,103086.41
2023-02-28T22:50:28.466Z,103085.50
2023-02-28T22:53:01.729Z,103090.69
2023-02-28T22:55:29.166Z,103083.69
2023-02-28T22:58:05.768Z,103071.34
2023-02-28T23:00:39.289Z,103086.22
2023-02-28T23:03:06.992Z,103087.91
2023-02-28T23:05:40.333Z,103084.38
2023-02-28T23:08:07.153Z,103092.22
2023-02-28T23:10:40.276Z,103087.81
2023-02-28T23:13:07.719Z,103093.94
2023-02-28T23:15:41.307Z,103086.97
2023-02-28T23:18:15.297Z,103089.50
2023-02-28T23:20:42.129Z,103095.63
2023-02-28T23:23:17.341Z,103098.19
2023-02-28T23:25:45.413Z,103102.56
2023-02-28T23:28:18.305Z,103090.25
2023-02-28T23:30:45.164Z,103097.22
2023-02-28T23:33:18.390Z,103105.03
2023-02-28T23:35:45.868Z,103105.94
2023-02-28T23:38:20.412Z,103097.16
2023-02-28T23:40:55.257Z,103097.13
2023-02-28T23:43:30.272Z,103098.88
2023-02-28T23:45:58.819Z,103087.47
2023-02-28T23:48:32.377Z,103093.53
2023-02-28T23:51:09.675Z,103089.13
2023-02-28T23:53:45.475Z,103069.84
2023-02-28T23:56:17.798Z,103073.34
2023-02-28T23:58:53.146Z,103085.63
